Time;durP1;ratioP1;P1;durP2;ratioP2;P2;SDS_P1;SDS_P2;PMS_P1;PMS_P2;Temp;Humidity;BMP_temperature;BMP_pressure;BME280_temperature;BME280_humidity;BME280_pressure;Samples;Min_cycle;Max_cycle;Signal;HPM_P1;HPM_P2
2024/01/15 00:01:15;;;;;;;8.57;7.20;;;2.20;99.90;;;;;;5049805;28;20208;-73
2024/01/15 00:03:42;;;;;;;8.70;7.37;;;2.20;99.90;;;;;;5049518;28;20312;-73
2024/01/15 00:06:09;;;;;;;8.07;6.70;;;2.20;99.90;;;;;;5049797;28;20287;-74
2024/01/15 00:08:36;;;;;;;8.10;6.80;;;2.20;99.90;;;;;;5049807;28;20320;-73
2024/01/15 00:11:03;;;;;;;8.80;7.20;;;2.20;99.90;;;;;;5049760;28;20204;-73
2024/01/15 00:13:29;;;;;;;9.83;7.17;;;2.20;99.90;;;;;;5050117;28;20248;-73
2024/01/15 00:15:58;;;;;;;9.83;7.73;;;2.20;99.90;;;;;;5049514;28;20319;-73
2024/01/15 00:18:24;;;;;;;7.23;6.53;;;2.30;99.90;;;;;;5049323;28;20302;-73
2024/01/15 00:20:51;;;;;;;7.67;6.90;;;2.20;99.90;;;;;;5049666;28;20262;-73
2024/01/15 00:23:18;;;;;;;7.77;7.00;;;2.30;99.90;;;;;;5048740;28;20326;-73
2024/01/15 00:25:45;;;;;;;7.37;6.67;;;2.30;99.90;;;;;;5048949;28;20738;-73
2024/01/15 00:28:11;;;;;;;8.63;6.93;;;2.30;99.90;;;;;;5048789;28;20648;-73
2024/01/15 00:30:38;;;;;;;8.93;6.80;;;2.30;99.90;;;;;;5049514;28;20245;-73
2024/01/15 00:33:07;;;;;;;7.10;6.13;;;2.30;99.90;;;;;;5048757;28;20297;-73
2024/01/15 00:35:34;;;;;;;9.57;7.03;;;2.40;99.90;;;;;;5049020;28;20204;-73
2024/01/15 00:38:00;;;;;;;7.03;6.33;;;2.40;99.90;;;;;;5048737;28;20864;-73
2024/01/15 00:40:27;;;;;;;7.80;6.70;;;2.40;99.90;;;;;;5049291;28;20305;-72
2024/01/15 00:42:54;;;;;;;8.53;6.33;;;2.40;99.90;;;;;;5049265;28;20208;-73
2024/01/15 00:45:21;;;;;;;7.70;6.10;;;2.40;99.90;;;;;;5048966;28;20692;-73
2024/01/15 00:47:48;;;;;;;6.50;5.90;;;2.40;99.90;;;;;;5048961;28;20287;-73
2024/01/15 00:50:17;;;;;;;6.10;5.50;;;2.40;99.90;;;;;;5048930;28;20299;-72
2024/01/15 00:52:44;;;;;;;7.30;6.03;;;2.50;99.90;;;;;;5048993;28;20209;-72
2024/01/15 00:55:10;;;;;;;6.80;6.07;;;2.50;99.90;;;;;;5048586;28;20732;-72
2024/01/15 00:57:37;;;;;;;6.87;5.80;;;2.50;99.90;;;;;;5048760;28;20773;-72
2024/01/15 01:00:06;;;;;;;6.63;5.83;;;2.40;99.90;;;;;;5048754;28;20681;-72
2024/01/15 01:02:33;;;;;;;7.23;6.07;;;2.40;99.90;;;;;;5048815;28;20715;-72
2024/01/15 01:05:00;;;;;;;5.93;5.30;;;2.40;99.90;;;;;;5048109;28;20685;-72
2024/01/15 01:07:28;;;;;;;8.90;6.03;;;2.30;99.90;;;;;;5048436;28;20208;-72
2024/01/15 01:09:55;;;;;;;7.00;6.30;;;2.40;99.90;;;;;;5048313;28;20755;-73
2024/01/15 01:12:22;;;;;;;8.03;6.53;;;2.30;99.90;;;;;;5048531;28;20250;-73
2024/01/15 01:14:48;;;;;;;7.87;6.67;;;2.20;99.90;;;;;;5048636;28;20223;-73
2024/01/15 01:17:15;;;;;;;8.23;6.60;;;2.20;99.90;;;;;;5048453;28;20295;-73
2024/01/15 01:19:42;;;;;;;7.13;6.30;;;2.20;99.90;;;;;;5048327;28;20291;-73
2024/01/15 01:22:09;;;;;;;8.07;6.87;;;2.10;99.90;;;;;;5045369;28;20235;-73
2024/01/15 01:24:37;;;;;;;7.83;6.83;;;2.10;99.90;;;;;;5048185;28;20285;-73
2024/01/15 01:27:05;;;;;;;9.10;6.47;;;2.10;99.90;;;;;;5048430;28;20208;-73
2024/01/15 01:29:31;;;;;;;8.23;7.10;;;2.10;99.90;;;;;;5047970;28;20686;-73
2024/01/15 01:31:58;;;;;;;9.20;7.00;;;2.00;99.90;;;;;;5047795;28;20295;-73
2024/01/15 01:34:25;;;;;;;7.43;6.60;;;2.10;99.90;;;;;;5047883;28;20211;-73
2024/01/15 01:36:52;;;;;;;9.57;7.23;;;2.00;99.90;;;;;;5047334;28;20227;-73
2024/01/15 01:39:19;;;;;;;10.27;6.80;;;2.00;99.90;;;;;;5048242;28;20740;-73
2024/01/15 01:41:47;;;;;;;7.27;6.50;;;2.00;99.90;;;;;;5048066;28;20212;-74
2024/01/15 01:44:14;;;;;;;9.33;7.20;;;1.90;99.90;;;;;;5047943;28;20313;-74
2024/01/15 01:46:41;;;;;;;8.67;7.10;;;1.90;99.90;;;;;;5047997;28;20234;-74
2024/01/15 01:49:09;;;;;;;9.87;7.47;;;1.90;99.90;;;;;;5048042;28;20295;-74
2024/01/15 01:51:37;;;;;;;11.77;7.43;;;1.80;99.90;;;;;;5047538;28;20685;-74
2024/01/15 01:54:05;;;;;;;8.93;7.67;;;1.90;99.90;;;;;;5048314;28;21028;-73
2024/01/15 01:56:32;;;;;;;9.93;7.60;;;1.90;99.90;;;;;;5047418;28;20204;-72
2024/01/15 01:59:00;;;;;;;8.40;6.97;;;1.90;99.90;;;;;;5047400;28;21099;-72
2024/01/15 02:01:27;;;;;;;10.33;7.17;;;1.90;99.90;;;;;;5047601;28;20287;-75
2024/01/15 02:03:56;;;;;;;8.40;6.47;;;1.90;99.90;;;;;;5047619;28;20253;-75
2024/01/15 02:06:24;;;;;;;7.33;6.53;;;1.90;99.90;;;;;;5047583;28;20208;-75
2024/01/15 02:08:51;;;;;;;8.67;7.17;;;2.00;99.90;;;;;;5047120;28;20694;-75
2024/01/15 02:11:18;;;;;;;9.93;6.67;;;2.00;99.90;;;;;;5047441;28;20696;-75
2024/01/15 02:13:45;;;;;;;8.73;6.73;;;2.00;99.90;;;;;;5047952;28;20219;-75
2024/01/15 02:16:13;;;;;;;10.40;6.70;;;2.00;99.90;;;;;;5047736;28;20204;-75
2024/01/15 02:18:41;;;;;;;8.13;5.97;;;2.00;99.90;;;;;;5047329;28;20222;-75
2024/01/15 02:21:08;;;;;;;7.40;5.17;;;2.00;99.90;;;;;;5047437;28;20642;-75
2024/01/15 02:23:37;;;;;;;5.33;4.73;;;2.00;99.90;;;;;;5047745;28;20208;-76
2024/01/15 02:26:05;;;;;;;8.13;5.00;;;2.10;99.90;;;;;;5047133;28;20872;-75
2024/01/15 02:28:33;;;;;;;6.33;5.20;;;2.00;99.90;;;;;;5047882;28;20204;-75
2024/01/15 02:31:00;;;;;;;7.63;5.30;;;2.00;99.90;;;;;;5047017;28;20300;-76
2024/01/15 02:33:27;;;;;;;4.97;4.50;;;2.10;99.90;;;;;;5047737;28;20645;-76
2024/01/15 02:35:54;;;;;;;5.03;4.57;;;2.00;99.90;;;;;;5047240;28;20261;-75
2024/01/15 02:38:21;;;;;;;4.23;3.83;;;2.10;99.90;;;;;;5047327;28;20239;-75
2024/01/15 02:40:50;;;;;;;4.80;4.10;;;2.10;99.90;;;;;;5047416;28;20213;-75
2024/01/15 02:43:19;;;;;;;4.83;4.17;;;2.10;99.90;;;;;;5047009;28;20303;-75
2024/01/15 02:45:45;;;;;;;4.50;4.10;;;2.10;99.90;;;;;;5046871;28;20256;-75
2024/01/15 02:48:12;;;;;;;5.37;3.83;;;2.10;99.90;;;;;;5046712;28;20860;-73
2024/01/15 02:50:39;;;;;;;4.83;3.83;;;2.10;99.90;;;;;;5047028;28;20271;-73
2024/01/15 02:53:06;;;;;;;4.47;4.07;;;2.00;99.90;;;;;;5046706;28;20211;-73
2024/01/15 02:55:33;;;;;;;6.63;4.37;;;2.10;99.90;;;;;;5046468;28;20730;-73
2024/01/15 02:58:02;;;;;;;6.77;4.50;;;2.00;99.90;;;;;;5046768;28;20210;-74
2024/01/15 03:00:28;;;;;;;6.63;4.13;;;2.00;99.90;;;;;;5046882;28;20243;-74
2024/01/15 03:02:56;;;;;;;4.40;4.00;;;2.10;99.90;;;;;;5046475;28;20272;-75
2024/01/15 03:05:23;;;;;;;5.93;4.43;;;2.00;99.90;;;;;;5046270;28;20663;-74
2024/01/15 03:07:50;;;;;;;6.03;4.27;;;2.00;99.90;;;;;;5046789;28;20736;-74
2024/01/15 03:10:17;;;;;;;4.87;4.00;;;2.10;99.90;;;;;;5046748;28;20290;-75
2024/01/15 03:12:44;;;;;;;4.90;4.47;;;2.00;99.90;;;;;;5046983;28;20624;-74
2024/01/15 03:15:13;;;;;;;4.87;4.00;;;2.00;99.90;;;;;;5046356;28;20649;-74
2024/01/15 03:17:40;;;;;;;4.30;3.90;;;2.00;99.90;;;;;;5044559;28;20210;-72
2024/01/15 03:20:07;;;;;;;4.43;4.03;;;2.00;99.90;;;;;;5051917;28;20258;-72
2024/01/15 03:22:34;;;;;;;6.03;3.80;;;2.10;99.90;;;;;;5049433;28;20301;-75
2024/01/15 03:25:01;;;;;;;6.97;3.80;;;2.10;99.90;;;;;;5032597;28;20282;-72
2024/01/15 03:27:28;;;;;;;6.10;4.40;;;2.10;99.90;;;;;;5026521;28;20704;-72
2024/01/15 03:29:55;;;;;;;4.70;3.77;;;2.10;99.90;;;;;;5044376;28;20303;-72
2024/01/15 03:32:23;;;;;;;5.00;3.57;;;2.10;99.90;;;;;;5044741;28;20204;-72
2024/01/15 03:34:52;;;;;;;4.53;3.73;;;2.10;99.90;;;;;;5044611;28;20753;-72
2024/01/15 03:37:19;;;;;;;5.13;3.67;;;2.10;99.90;;;;;;5044340;28;20612;-73
2024/01/15 03:39:46;;;;;;;4.20;3.47;;;2.20;99.90;;;;;;5044481;28;20212;-72
2024/01/15 03:42:14;;;;;;;4.17;3.73;;;2.10;99.90;;;;;;5044426;28;20205;-72
2024/01/15 03:44:41;;;;;;;4.40;3.73;;;2.20;99.90;;;;;;5044588;28;20236;-72
2024/01/15 03:47:08;;;;;;;7.77;3.80;;;2.20;99.90;;;;;;5044143;28;20216;-72
2024/01/15 03:49:36;;;;;;;6.73;3.67;;;2.20;99.90;;;;;;5044959;28;20222;-73
2024/01/15 03:52:03;;;;;;;4.97;4.03;;;2.20;99.90;;;;;;5044375;28;20238;-73
2024/01/15 03:54:30;;;;;;;4.30;3.70;;;2.20;99.90;;;;;;5044871;28;20665;-73
2024/01/15 03:56:56;;;;;;;5.93;3.77;;;2.20;99.90;;;;;;5045881;28;20202;-73
2024/01/15 03:59:23;;;;;;;5.33;3.80;;;2.20;99.90;;;;;;5048174;28;20315;-73
2024/01/15 04:01:51;;;;;;;8.00;5.10;;;2.20;99.90;;;;;;5048862;28;20294;-72
2024/01/15 04:04:18;;;;;;;6.20;3.37;;;2.10;99.90;;;;;;5048913;28;20248;-73
2024/01/15 04:06:46;;;;;;;5.13;3.17;;;2.10;99.90;;;;;;5049540;28;20303;-72
2024/01/15 04:09:14;;;;;;;4.57;3.50;;;2.10;99.90;;;;;;5049333;28;20307;-73
2024/01/15 04:11:40;;;;;;;3.37;3.07;;;2.10;99.90;;;;;;5049557;28;20207;-73
2024/01/15 04:14:07;;;;;;;4.43;3.40;;;2.10;99.90;;;;;;5041482;28;21143;-73
2024/01/15 04:16:34;;;;;;;3.27;2.97;;;2.10;99.90;;;;;;5029602;28;20243;-73
2024/01/15 04:19:01;;;;;;;4.17;3.50;;;2.10;99.90;;;;;;5029964;28;20215;-72
2024/01/15 04:21:28;;;;;;;4.80;3.13;;;2.10;99.90;;;;;;5041684;28;20303;-73
2024/01/15 04:23:56;;;;;;;5.20;3.20;;;2.10;99.90;;;;;;5049553;28;20312;-72
2024/01/15 04:26:23;;;;;;;5.17;3.00;;;2.10;99.90;;;;;;5049501;28;20240;-72
2024/01/15 04:28:50;;;;;;;4.60;3.20;;;2.10;99.90;;;;;;5049661;28;20303;-72
2024/01/15 04:31:24;;;;;;;4.27;2.93;;;2.20;99.90;;;;;;5049751;28;20258;-73
2024/01/15 04:33:51;;;;;;;7.67;3.27;;;2.20;99.90;;;;;;5049450;28;20207;-73
2024/01/15 04:36:18;;;;;;;4.00;2.80;;;2.20;99.90;;;;;;5049151;28;20272;-73
2024/01/15 04:38:45;;;;;;;3.30;3.00;;;2.20;99.90;;;;;;5049185;28;20240;-73
2024/01/15 04:41:14;;;;;;;4.97;2.80;;;2.20;99.90;;;;;;5048935;28;20657;-73
2024/01/15 04:43:41;;;;;;;5.77;3.07;;;2.20;99.90;;;;;;5048799;28;20208;-72
2024/01/15 04:46:08;;;;;;;4.13;2.47;;;2.20;99.90;;;;;;5048765;28;20326;-72
2024/01/15 04:48:36;;;;;;;5.10;2.57;;;2.20;99.90;;;;;;5049278;28;20291;-72
2024/01/15 04:51:05;;;;;;;4.47;2.60;;;2.20;99.90;;;;;;5048846;28;20638;-73
2024/01/15 04:53:32;;;;;;;2.87;2.20;;;2.20;99.90;;;;;;5048721;28;20299;-72
2024/01/15 04:55:59;;;;;;;3.00;2.10;;;2.20;99.90;;;;;;5048945;28;20259;-72
2024/01/15 04:58:27;;;;;;;4.13;2.30;;;2.20;99.90;;;;;;5049190;28;20318;-72
2024/01/15 05:00:55;;;;;;;2.80;1.90;;;2.20;99.90;;;;;;5048848;28;20323;-72
2024/01/15 05:03:22;;;;;;;4.67;2.43;;;2.30;99.90;;;;;;5048674;28;20253;-72
2024/01/15 05:05:49;;;;;;;3.37;2.17;;;2.30;99.90;;;;;;5048335;28;20322;-72
2024/01/15 05:08:15;;;;;;;3.27;1.60;;;2.30;99.90;;;;;;5048569;28;20307;-72
2024/01/15 05:10:42;;;;;;;3.57;2.27;;;2.30;99.90;;;;;;5048809;28;20283;-72
2024/01/15 05:13:09;;;;;;;3.00;2.10;;;2.30;99.90;;;;;;5048869;28;20215;-72
2024/01/15 05:15:38;;;;;;;2.40;1.93;;;2.20;99.90;;;;;;5048686;28;20200;-72
2024/01/15 05:18:05;;;;;;;3.47;1.90;;;2.20;99.90;;;;;;5048342;28;20208;-73
2024/01/15 05:20:32;;;;;;;2.43;1.53;;;2.30;99.90;;;;;;5048648;28;20218;-72
2024/01/15 05:22:58;;;;;;;4.90;1.80;;;2.30;99.90;;;;;;5048314;28;20212;-72
2024/01/15 05:25:25;;;;;;;3.73;1.73;;;2.30;99.90;;;;;;5048271;28;20234;-73
2024/01/15 05:27:52;;;;;;;3.27;1.80;;;2.30;99.90;;;;;;5048247;28;20766;-72
2024/01/15 05:30:19;;;;;;;3.03;2.00;;;2.30;99.90;;;;;;5048355;28;20215;-72
2024/01/15 05:32:47;;;;;;;3.73;1.93;;;2.30;99.90;;;;;;5048438;28;20638;-73
2024/01/15 05:35:14;;;;;;;5.67;1.50;;;2.40;99.90;;;;;;5048368;28;20734;-73
2024/01/15 05:37:44;;;;;;;3.20;1.60;;;2.40;99.90;;;;;;5047906;28;20844;-72
2024/01/15 05:40:12;;;;;;;3.00;1.73;;;2.40;99.90;;;;;;5048621;28;20291;-72
2024/01/15 05:42:39;;;;;;;3.93;1.73;;;2.40;99.90;;;;;;5048303;28;20738;-72
2024/01/15 05:45:07;;;;;;;4.10;1.63;;;2.40;99.90;;;;;;5032448;28;20325;-72
2024/01/15 05:47:34;;;;;;;8.10;1.90;;;2.40;99.90;;;;;;5028339;28;20205;-72
2024/01/15 05:50:02;;;;;;;4.97;1.67;;;2.40;99.90;;;;;;5028496;28;20212;-72
2024/01/15 05:52:29;;;;;;;4.40;1.47;;;2.40;99.90;;;;;;5027957;28;20236;-72
2024/01/15 05:54:56;;;;;;;5.43;1.60;;;2.40;99.90;;;;;;5040367;28;20625;-73
2024/01/15 05:57:23;;;;;;;4.93;1.80;;;2.30;99.90;;;;;;5047422;28;20254;-72
2024/01/15 05:59:50;;;;;;;2.87;1.90;;;2.30;99.90;;;;;;5047906;28;20588;-72
2024/01/15 06:02:17;;;;;;;4.37;2.30;;;2.30;99.90;;;;;;5047560;28;20633;-72
2024/01/15 06:04:44;;;;;;;5.37;1.60;;;2.30;99.90;;;;;;5047594;28;20324;-72
2024/01/15 06:07:12;;;;;;;5.23;1.50;;;2.30;99.90;;;;;;5047181;28;20832;-73
2024/01/15 06:09:39;;;;;;;4.07;1.60;;;2.40;99.90;;;;;;5047850;28;20299;-72
2024/01/15 06:12:07;;;;;;;2.57;1.70;;;2.30;99.90;;;;;;5047760;28;20196;-72
2024/01/15 06:14:34;;;;;;;2.40;1.37;;;2.40;99.90;;;;;;5047781;28;20909;-72
2024/01/15 06:17:01;;;;;;;3.10;1.07;;;2.40;99.90;;;;;;5047657;28;20254;-72
2024/01/15 06:19:28;;;;;;;3.10;1.50;;;2.40;99.90;;;;;;5047787;28;20362;-72
2024/01/15 06:21:55;;;;;;;5.50;1.50;;;2.40;99.90;;;;;;5046690;28;20299;-71
2024/01/15 06:24:23;;;;;;;5.90;1.90;;;2.40;99.90;;;;;;5047373;28;20307;-72
2024/01/15 06:26:50;;;;;;;4.87;1.27;;;2.40;99.90;;;;;;5047305;28;20574;-72
2024/01/15 06:29:17;;;;;;;3.07;1.37;;;2.30;99.90;;;;;;5047713;28;20283;-71
2024/01/15 06:31:44;;;;;;;3.57;1.23;;;2.30;99.90;;;;;;5047390;28;20682;-72
2024/01/15 06:34:11;;;;;;;3.07;1.40;;;2.30;99.90;;;;;;5047529;28;20212;-72
2024/01/15 06:36:38;;;;;;;4.90;1.93;;;2.30;99.90;;;;;;5047267;28;20334;-72
2024/01/15 06:39:05;;;;;;;3.73;1.33;;;2.30;99.90;;;;;;5047057;28;20208;-72
2024/01/15 06:41:33;;;;;;;2.67;1.30;;;2.30;99.90;;;;;;5047569;28;20208;-72
2024/01/15 06:44:00;;;;;;;3.87;1.30;;;2.30;99.90;;;;;;5047243;28;20270;-72
2024/01/15 06:46:27;;;;;;;2.83;1.30;;;2.40;99.90;;;;;;5046794;28;20326;-71
2024/01/15 06:48:54;;;;;;;5.83;1.47;;;2.40;99.90;;;;;;5046914;28;20274;-72
2024/01/15 06:51:21;;;;;;;2.70;1.30;;;2.40;99.90;;;;;;5047112;28;20731;-72
2024/01/15 06:53:48;;;;;;;4.70;1.60;;;2.40;99.90;;;;;;5046377;28;20290;-72
2024/01/15 06:56:15;;;;;;;3.37;1.20;;;2.50;99.90;;;;;;5047051;28;20212;-72
2024/01/15 06:58:43;;;;;;;3.73;1.30;;;2.50;99.90;;;;;;5046786;28;20266;-71
2024/01/15 07:01:10;;;;;;;5.53;1.30;;;2.50;99.90;;;;;;5046574;28;20662;-71
2024/01/15 07:03:37;;;;;;;5.03;1.63;;;2.60;99.90;;;;;;5046698;28;20744;-71
2024/01/15 07:06:04;;;;;;;3.17;1.17;;;2.50;99.90;;;;;;5046959;28;20307;-72
2024/01/15 07:08:31;;;;;;;3.20;1.13;;;2.60;99.90;;;;;;5046930;28;20292;-72
2024/01/15 07:10:58;;;;;;;4.67;1.00;;;2.60;99.90;;;;;;5046665;28;20298;-71
2024/01/15 07:13:25;;;;;;;4.33;1.20;;;2.60;99.90;;;;;;5046805;28;20617;-72
2024/01/15 07:15:53;;;;;;;2.77;1.27;;;2.70;99.90;;;;;;5046459;28;20239;-71
2024/01/15 07:18:20;;;;;;;3.83;1.30;;;2.70;99.90;;;;;;5046673;28;20299;-71
2024/01/15 07:20:47;;;;;;;2.77;1.50;;;2.70;99.90;;;;;;5046555;28;20239;-71
2024/01/15 07:23:14;;;;;;;2.67;1.37;;;2.70;99.90;;;;;;5046503;28;20295;-71
2024/01/15 07:25:40;;;;;;;5.83;1.47;;;2.70;99.90;;;;;;5046191;28;20313;-71
2024/01/15 07:28:07;;;;;;;2.53;1.30;;;2.70;99.90;;;;;;5046697;28;20254;-71
2024/01/15 07:30:34;;;;;;;3.40;1.40;;;2.70;99.90;;;;;;5046518;28;20200;-71
2024/01/15 07:33:04;;;;;;;2.57;1.30;;;2.70;99.90;;;;;;5047044;28;20263;-71
2024/01/15 07:35:31;;;;;;;1.73;1.00;;;2.70;99.90;;;;;;5050467;28;20208;-71
2024/01/15 07:37:58;;;;;;;4.80;1.30;;;2.70;99.90;;;;;;5050094;28;20208;-71
2024/01/15 07:40:25;;;;;;;4.23;1.67;;;2.70;99.90;;;;;;5050446;28;20299;-71
2024/01/15 07:42:52;;;;;;;4.97;1.57;;;2.70;99.90;;;;;;5050383;28;20215;-71
2024/01/15 07:45:19;;;;;;;4.67;1.13;;;2.70;99.90;;;;;;5050464;28;20744;-71
2024/01/15 07:47:46;;;;;;;2.47;1.40;;;2.70;99.90;;;;;;5050305;28;20289;-71
2024/01/15 07:50:14;;;;;;;4.93;1.20;;;2.70;99.90;;;;;;5050285;28;20258;-71
2024/01/15 07:52:42;;;;;;;4.63;1.50;;;2.70;99.90;;;;;;5050113;28;20239;-71
2024/01/15 07:55:09;;;;;;;3.20;1.60;;;2.70;99.90;;;;;;5049650;28;20200;-71
2024/01/15 07:57:36;;;;;;;4.27;1.50;;;2.70;99.90;;;;;;5050166;28;20808;-71
2024/01/15 08:00:05;;;;;;;5.50;1.70;;;2.70;99.90;;;;;;5050175;28;20224;-71
2024/01/15 08:02:32;;;;;;;3.60;1.27;;;2.70;99.90;;;;;;5049916;28;20670;-71
2024/01/15 08:04:59;;;;;;;5.20;1.40;;;2.70;99.90;;;;;;5049523;28;20232;-71
2024/01/15 08:07:27;;;;;;;5.03;1.40;;;2.70;99.90;;;;;;5029696;28;20232;-71
2024/01/15 08:09:54;;;;;;;5.93;1.70;;;2.70;99.90;;;;;;5030239;28;20654;-71
2024/01/15 08:12:22;;;;;;;5.57;1.43;;;2.70;99.90;;;;;;5030078;28;20296;-71
2024/01/15 08:14:49;;;;;;;1.97;1.03;;;2.70;99.90;;;;;;5043368;28;20208;-71
2024/01/15 08:17:16;;;;;;;5.60;1.27;;;2.70;99.90;;;;;;5049760;28;20287;-71
2024/01/15 08:19:43;;;;;;;4.43;1.33;;;2.70;99.90;;;;;;5049617;28;20295;-71
2024/01/15 08:22:10;;;;;;;4.17;1.20;;;2.70;99.90;;;;;;5049315;28;20571;-72
2024/01/15 08:24:39;;;;;;;3.27;0.80;;;2.70;99.90;;;;;;5049387;28;20212;-71
2024/01/15 08:27:06;;;;;;;4.77;1.10;;;2.60;99.90;;;;;;5049006;28;20729;-71
2024/01/15 08:29:34;;;;;;;3.77;1.10;;;2.60;99.90;;;;;;5049669;28;20305;-71
2024/01/15 08:32:01;;;;;;;4.30;1.50;;;2.60;99.90;;;;;;5049020;28;20211;-71
2024/01/15 08:34:28;;;;;;;1.53;1.20;;;2.70;99.90;;;;;;5049315;28;20297;-71
2024/01/15 08:36:55;;;;;;;4.23;1.30;;;2.70;99.90;;;;;;5049047;28;20247;-71
2024/01/15 08:39:22;;;;;;;5.50;1.80;;;2.70;99.90;;;;;;5049374;28;20287;-71
2024/01/15 08:41:50;;;;;;;3.33;1.10;;;2.70;99.90;;;;;;5048736;28;20221;-71
2024/01/15 08:44:17;;;;;;;2.00;0.97;;;2.70;99.90;;;;;;5048926;28;20240;-71
2024/01/15 08:46:44;;;;;;;3.40;1.07;;;2.70;99.90;;;;;;5048987;28;20233;-71
2024/01/15 08:49:11;;;;;;;2.27;1.30;;;2.80;99.90;;;;;;5049221;28;20214;-71
2024/01/15 08:51:39;;;;;;;3.00;1.37;;;2.80;99.90;;;;;;5048780;28;20204;-71
2024/01/15 08:54:08;;;;;;;4.20;1.47;;;2.80;99.90;;;;;;5048932;28;20208;-71
2024/01/15 08:56:35;;;;;;;4.13;1.33;;;2.80;99.90;;;;;;5049030;28;20223;-71
2024/01/15 08:59:03;;;;;;;7.57;1.70;;;2.80;99.90;;;;;;5049203;28;20314;-71
2024/01/15 09:01:30;;;;;;;4.80;1.40;;;2.80;99.90;;;;;;5048941;28;20299;-72
2024/01/15 09:03:57;;;;;;;4.07;1.43;;;2.80;99.90;;;;;;5048652;28;20327;-72
2024/01/15 09:06:24;;;;;;;3.40;1.47;;;2.80;99.90;;;;;;5048600;28;20240;-71
2024/01/15 09:08:51;;;;;;;4.40;1.37;;;2.80;99.90;;;;;;5048588;28;20231;-72
2024/01/15 09:11:18;;;;;;;5.17;1.33;;;2.80;99.90;;;;;;5049011;28;20283;-72
2024/01/15 09:13:45;;;;;;;2.37;1.00;;;2.80;99.90;;;;;;5048485;28;20731;-72
2024/01/15 09:16:13;;;;;;;3.40;1.00;;;2.80;99.90;;;;;;5048086;28;20649;-72
2024/01/15 09:18:40;;;;;;;2.60;1.10;;;2.80;99.90;;;;;;5048892;28;20291;-72
2024/01/15 09:21:07;;;;;;;4.73;1.60;;;2.80;99.90;;;;;;5048586;28;20291;-72
2024/01/15 09:23:34;;;;;;;3.97;1.27;;;2.80;99.90;;;;;;5048476;28;20204;-71
2024/01/15 09:26:00;;;;;;;2.40;1.40;;;2.80;99.90;;;;;;5048787;28;20270;-71
2024/01/15 09:28:27;;;;;;;4.63;1.50;;;2.80;99.90;;;;;;5048500;28;20299;-71
2024/01/15 09:30:54;;;;;;;5.77;1.50;;;2.80;99.90;;;;;;5048586;28;20204;-72
2024/01/15 09:33:22;;;;;;;3.20;1.23;;;2.80;99.90;;;;;;5048826;28;20243;-71
2024/01/15 09:35:49;;;;;;;2.97;1.07;;;2.80;99.90;;;;;;5048623;28;20299;-71
2024/01/15 09:38:18;;;;;;;4.40;1.83;;;2.80;99.90;;;;;;5048419;28;20299;-72
2024/01/15 09:40:47;;;;;;;2.10;1.10;;;2.80;99.90;;;;;;5048259;28;20218;-71
2024/01/15 09:43:15;;;;;;;2.73;1.30;;;2.90;99.90;;;;;;5048433;28;20204;-71
2024/01/15 09:45:43;;;;;;;3.43;1.10;;;2.90;99.90;;;;;;5048376;28;20208;-71
2024/01/15 09:48:10;;;;;;;2.10;0.87;;;2.90;99.90;;;;;;5047632;28;20319;-72
2024/01/15 09:50:38;;;;;;;1.63;1.00;;;2.90;99.90;;;;;;5048227;28;20292;-71
2024/01/15 09:53:06;;;;;;;3.10;1.00;;;2.90;99.90;;;;;;5047896;28;20238;-72
2024/01/15 09:55:33;;;;;;;1.47;0.90;;;3.00;99.90;;;;;;5047202;28;20689;-71
2024/01/15 09:58:04;;;;;;;3.43;1.00;;;3.00;99.90;;;;;;5047576;28;20318;-72
2024/01/15 10:00:31;;;;;;;2.03;0.93;;;3.00;99.90;;;;;;5047939;28;20648;-71
2024/01/15 10:03:00;;;;;;;2.57;1.03;;;3.00;99.90;;;;;;5047616;28;20212;-72
2024/01/15 10:05:27;;;;;;;2.07;1.10;;;3.00;99.90;;;;;;5047656;28;20651;-71
2024/01/15 10:07:57;;;;;;;3.87;1.07;;;3.00;99.90;;;;;;5046900;28;20274;-71
2024/01/15 10:10:24;;;;;;;2.63;1.10;;;3.00;99.90;;;;;;5048218;28;20626;-72
2024/01/15 10:12:51;;;;;;;1.90;0.80;;;3.00;99.90;;;;;;5047518;28;20236;-72
2024/01/15 10:15:18;;;;;;;0.87;0.80;;;3.00;99.90;;;;;;5047334;28;20291;-72
2024/01/15 10:17:45;;;;;;;4.30;1.20;;;3.00;99.90;;;;;;5047310;28;20204;-72
2024/01/15 10:20:12;;;;;;;1.27;0.83;;;3.00;99.90;;;;;;5047655;28;20307;-71
2024/01/15 10:22:42;;;;;;;2.47;1.10;;;3.10;99.90;;;;;;5046681;28;20315;-71
2024/01/15 10:25:13;;;;;;;1.63;1.03;;;3.10;99.90;;;;;;5047078;28;20204;-71
2024/01/15 10:27:41;;;;;;;1.07;0.93;;;3.10;99.90;;;;;;5047181;28;20220;-71
2024/01/15 10:30:09;;;;;;;0.80;0.80;;;3.10;99.90;;;;;;5047240;28;20373;-71
2024/01/15 10:32:35;;;;;;;5.00;1.43;;;3.10;99.90;;;;;;5047019;28;20301;-71
2024/01/15 10:35:03;;;;;;;2.73;1.10;;;3.10;99.90;;;;;;5046933;28;20304;-71
2024/01/15 10:37:33;;;;;;;1.10;1.00;;;3.10;99.90;;;;;;5046527;28;20258;-71
2024/01/15 10:40:03;;;;;;;2.23;1.17;;;3.10;99.90;;;;;;5047005;28;20294;-71
2024/01/15 10:42:31;;;;;;;2.47;1.00;;;3.10;99.90;;;;;;5047408;28;20212;-72
2024/01/15 10:44:58;;;;;;;1.63;0.97;;;3.20;99.90;;;;;;5046636;28;20208;-71
2024/01/15 10:47:25;;;;;;;0.97;0.77;;;3.20;99.90;;;;;;5047150;28;20322;-71
2024/01/15 10:49:53;;;;;;;1.43;0.90;;;3.20;99.90;;;;;;5047214;28;20374;-71
2024/01/15 10:52:20;;;;;;;1.30;0.97;;;3.20;99.90;;;;;;5046651;28;20254;-71
2024/01/15 10:54:48;;;;;;;2.53;0.97;;;3.20;99.90;;;;;;5046732;28;20291;-72
2024/01/15 10:57:17;;;;;;;0.87;0.50;;;3.20;99.90;;;;;;5046857;28;20215;-72
2024/01/15 10:59:45;;;;;;;1.13;0.80;;;3.30;99.90;;;;;;5046970;28;20327;-72
2024/01/15 11:02:13;;;;;;;1.00;0.50;;;3.30;99.90;;;;;;5046576;28;20303;-71
2024/01/15 11:04:40;;;;;;;1.20;0.60;;;3.40;99.90;;;;;;5046507;28;20276;-71
2024/01/15 11:07:08;;;;;;;1.33;0.73;;;3.40;99.90;;;;;;5046120;28;20547;-71
2024/01/15 11:09:36;;;;;;;0.60;0.60;;;3.40;99.90;;;;;;5046801;28;20204;-71
2024/01/15 11:12:12;;;;;;;1.70;0.63;;;3.30;99.90;;;;;;5046702;28;20208;-71
2024/01/15 11:14:43;;;;;;;0.63;0.57;;;3.20;99.90;;;;;;5046733;28;20208;-72
2024/01/15 11:17:12;;;;;;;1.13;0.80;;;3.20;99.90;;;;;;5046367;28;20217;-71
2024/01/15 11:19:43;;;;;;;1.97;0.70;;;3.10;99.90;;;;;;5047046;28;20642;-71
2024/01/15 11:22:11;;;;;;;0.60;0.60;;;3.10;99.90;;;;;;5046595;28;20825;-71
2024/01/15 11:24:39;;;;;;;1.70;1.13;;;3.10;99.90;;;;;;5046873;28;20210;-71
2024/01/15 11:27:07;;;;;;;2.17;1.13;;;3.00;99.90;;;;;;5046304;28;20805;-72
2024/01/15 11:29:35;;;;;;;2.57;1.00;;;3.00;99.90;;;;;;5046860;28;20350;-71
2024/01/15 11:32:05;;;;;;;1.70;0.80;;;3.00;99.90;;;;;;5046524;28;20721;-71
2024/01/15 11:34:58;;;;;;;2.50;1.00;;;3.00;99.90;;;;;;5046717;28;20782;-72
2024/01/15 11:37:25;;;;;;;1.63;1.03;;;2.90;99.90;;;;;;5046627;28;20301;-71
2024/01/15 11:39:54;;;;;;;1.40;1.07;;;2.90;99.90;;;;;;5043716;28;20673;-71
2024/01/15 11:42:22;;;;;;;1.13;0.90;;;2.90;99.90;;;;;;5046715;28;20266;-71
2024/01/15 11:44:49;;;;;;;0.70;0.70;;;2.80;99.90;;;;;;5033185;28;20304;-71
2024/01/15 11:47:16;;;;;;;1.07;1.07;;;2.80;99.90;;;;;;5026671;28;20235;-71
2024/01/15 11:50:01;;;;;;;1.20;1.10;;;2.80;99.90;;;;;;5026635;28;20296;-71
2024/01/15 11:52:33;;;;;;;1.10;0.80;;;2.70;99.90;;;;;;5026237;28;20817;-71
2024/01/15 11:55:05;;;;;;;1.00;0.67;;;2.80;99.90;;;;;;5026417;28;20653;-71
2024/01/15 11:57:43;;;;;;;1.10;1.00;;;2.70;99.90;;;;;;5026699;28;20276;-71
2024/01/15 12:00:11;;;;;;;1.20;1.13;;;2.70;99.90;;;;;;5026540;28;20196;-71
2024/01/15 12:02:38;;;;;;;0.90;0.90;;;2.70;99.90;;;;;;5026617;28;20220;-71
2024/01/15 12:05:07;;;;;;;1.33;1.23;;;2.70;99.90;;;;;;5025816;28;20236;-71
2024/01/15 12:07:35;;;;;;;1.00;1.00;;;2.70;99.90;;;;;;5026249;28;20247;-71
2024/01/15 12:10:02;;;;;;;1.00;1.00;;;2.70;99.90;;;;;;5026201;28;20207;-71
2024/01/15 12:12:38;;;;;;;0.90;0.90;;;2.70;99.90;;;;;;5026317;28;20851;-72
2024/01/15 12:15:06;;;;;;;0.97;0.97;;;2.70;99.90;;;;;;5026055;28;20670;-71
2024/01/15 12:17:33;;;;;;;1.10;1.00;;;2.70;99.90;;;;;;5026217;28;20212;-71
2024/01/15 12:20:00;;;;;;;1.70;0.90;;;2.70;99.90;;;;;;5027954;28;20763;-71
2024/01/15 12:22:28;;;;;;;1.30;1.20;;;2.70;99.90;;;;;;5029483;28;20215;-71
2024/01/15 12:24:57;;;;;;;1.90;0.80;;;2.70;99.90;;;;;;5029782;28;20219;-71
2024/01/15 12:27:24;;;;;;;1.57;0.90;;;2.70;99.90;;;;;;5029624;28;20690;-71
2024/01/15 12:29:53;;;;;;;1.10;1.00;;;2.70;99.90;;;;;;5029709;28;20292;-72
2024/01/15 12:32:21;;;;;;;1.00;0.90;;;2.70;99.90;;;;;;5029491;28;20208;-71
2024/01/15 12:34:49;;;;;;;1.00;0.87;;;2.70;99.90;;;;;;5029254;28;20672;-71
2024/01/15 12:37:18;;;;;;;0.70;0.60;;;2.60;99.90;;;;;;5046637;28;20601;-72
2024/01/15 12:39:47;;;;;;;0.70;0.70;;;2.60;99.90;;;;;;5049296;28;20656;-70
2024/01/15 12:42:16;;;;;;;0.80;0.80;;;2.40;99.90;;;;;;5049365;28;20649;-70
2024/01/15 12:44:43;;;;;;;1.00;0.90;;;2.40;99.90;;;;;;5049474;28;20256;-71
2024/01/15 12:47:10;;;;;;;0.80;0.80;;;2.30;99.90;;;;;;5048693;28;20295;-71
2024/01/15 12:49:39;;;;;;;1.10;1.10;;;2.30;99.90;;;;;;5049597;28;20212;-71
2024/01/15 12:52:09;;;;;;;0.83;0.83;;;2.30;99.90;;;;;;5049090;28;20212;-71
2024/01/15 12:54:37;;;;;;;1.37;1.00;;;2.30;99.90;;;;;;5049415;28;20319;-71
2024/01/15 12:57:06;;;;;;;1.83;0.90;;;2.30;99.90;;;;;;5049149;28;20213;-70
2024/01/15 12:59:34;;;;;;;1.10;1.10;;;2.30;99.90;;;;;;5049074;28;20220;-71